Latest Weather Observations for Normanton

IDQ60801

Issued at 8:12 am EST Wednesday 23 October 2019 (issued every 10 minutes, with the page automatically refreshed every 10 minutes)

About weather observations | Map of weather stations | Latest weather observations for QLD | Other Formats
Station Details ID: 029063 Name: NORMANTON AIRPORT Lat: -17.69 Lon: 141.07 Height: 18.42 m
Data from the previous 72 hours. | See also: Recent months at Normanton
Date/Time
EST
Temp
°C
App
Temp
°C
Dew
Point
°C
Rel
Hum
%
Delta-T
°C
Wind Press
QNH
hPa
Press
MSL
hPa
Rain since
9am
mm
Dir  Spd
km/h
Gust
km/h
Spd
kts
Gust
kts
23/08:00am 28.1 26.2 14.3 42 8.3 ENE 17 24 9 13 1016.0 1015.8 0.0
23/07:30am 27.9 27.0 14.9 45 7.9 ENE 13 20 7 11 1015.8 1015.6 0.0
23/07:00am 26.7 25.9 14.1 46 7.5 ENE 11 17 6 9 1015.4 1015.2 0.0
23/06:30am 25.8 25.7 14.0 48 7.0 ENE 7 11 4 6 1015.1 1014.9 0.0
23/06:00am 26.1 25.6 13.9 47 7.2 NE 9 15 5 8 1014.7 1014.5 0.0
23/05:30am 26.3 25.8 13.8 46 7.4 ENE 9 13 5 7 1014.3 1014.1 0.0
23/05:00am 26.8 26.0 13.9 45 7.7 ENE 11 20 6 11 1013.9 1013.7 0.0
23/04:30am 27.0 26.0 13.4 43 8.0 ENE 11 19 6 10 1013.5 1013.3 0.0
23/04:00am 27.5 26.1 13.4 41 8.3 ENE 13 20 7 11 1013.1 1012.9 0.0
23/03:30am 27.7 25.9 13.3 41 8.5 ENE 15 22 8 12 1012.8 1012.6 0.0
23/03:00am 27.8 26.4 13.3 40 8.6 NE 13 20 7 11 1012.7 1012.5 0.0
23/02:30am 27.8 26.6 14.1 43 8.2 NE 13 20 7 11 1012.6 1012.4 0.0
23/02:00am 27.6 27.9 16.9 52 6.7 ENE 11 15 6 8 1012.6 1012.4 0.0
23/01:30am 27.5 29.0 19.8 63 5.0 ENE 11 17 6 9 1012.7 1012.5 0.0
23/01:00am 27.6 29.9 20.7 66 4.6 NE 9 11 5 6 1012.8 1012.6 0.0
23/12:30am 27.3 30.3 21.3 69 4.0 NNE 7 11 4 6 1012.8 1012.6 0.0
23/12:00am 27.2 30.2 21.2 69 4.0 NNE 7 11 4 6 1012.9 1012.7 0.0
 
Date/Time
EST
Temp
°C
App
Temp
°C
Dew
Point
°C
Rel
Hum
%
Delta-T
°C
Wind Press
QNH
hPa
Press
MSL
hPa
Rain since
9am
mm
Dir  Spd
km/h
Gust
km/h
Spd
kts
Gust
kts
22/11:30pm 27.6 30.8 21.2 68 4.3 NNE 6 9 3 5 1012.7 1012.5 0.0
22/11:00pm 28.0 30.9 21.1 66 4.6 NW 7 9 4 5 1012.5 1012.3 0.0
22/10:30pm 28.3 30.8 21.1 65 4.8 WNW 9 11 5 6 1012.4 1012.2 0.0
22/10:00pm 28.8 30.7 20.5 61 5.5 NW 11 15 6 8 1012.3 1012.1 0.0
22/09:30pm 29.1 30.6 20.5 59 5.7 NW 13 15 7 8 1012.1 1011.9 0.0
22/09:00pm 29.3 30.3 20.2 58 6.0 NNW 15 19 8 10 1011.7 1011.5 0.0
22/08:30pm 30.6 31.6 18.7 49 7.7 WNW 11 15 6 8 1011.5 1011.3 0.0
22/08:00pm 31.0 31.6 18.7 48 8.0 NW 13 17 7 9 1011.2 1011.0 0.0
22/07:30pm 31.7 32.6 18.3 45 8.7 WNW 11 15 6 8 1010.9 1010.7 0.0
22/07:00pm 32.8 33.1 17.0 38 10.1 NW 11 17 6 9 1010.6 1010.4 0.0
22/06:30pm 33.8 34.0 15.7 33 11.3 W 9 11 5 6 1010.1 1009.9 0.0
22/06:00pm 35.1 33.7 10.9 23 14.2 SE 9 11 5 6 1009.8 1009.6 0.0
22/05:30pm 35.3 33.5 11.0 23 14.3 ESE 11 20 6 11 1009.6 1009.4 0.0
22/05:00pm 35.3 34.5 11.7 24 14.0 ESE 7 15 4 8 1009.4 1009.2 0.0
22/04:30pm 35.9 32.6 10.9 22 14.7 E 19 33 10 18 1009.4 1009.2 0.0
22/04:00pm 36.4 33.4 10.6 21 15.2 SE 17 22 9 12 1009.5 1009.3 0.0
22/03:30pm 36.7 33.9 11.5 22 15.0 SSE 17 28 9 15 1009.7 1009.5 0.0
22/03:00pm 36.3 34.8 11.9 23 14.6 SSE 11 19 6 10 1010.0 1009.8 0.0
22/02:30pm 35.9 34.1 12.2 24 14.2 E 13 24 7 13 1010.4 1010.2 0.0
22/02:00pm 36.0 35.2 12.9 25 14.0 ESE 9 26 5 14 1010.8 1010.6 0.0
22/01:30pm 34.3 32.6 12.6 27 13.0 ESE 13 20 7 11 1011.3 1011.1 0.0
22/01:00pm 35.0 33.7 13.8 28 13.0 E 13 24 7 13 1011.9 1011.7 0.0
22/12:30pm 34.0 32.6 13.5 29 12.4 ENE 13 24 7 13 1012.8 1012.6 0.0
22/12:00pm 34.1 32.6 14.1 30 12.3 E 15 30 8 16 1013.4 1013.2 0.0
22/11:30am 32.7 31.1 13.8 31 11.5 E 15 26 8 14 1013.9 1013.7 0.0
22/11:00am 32.9 30.7 14.5 33 11.3 ENE 19 32 10 17 1014.4 1014.2 0.0
22/10:30am 31.8 30.0 14.4 34 10.6 ENE 17 32 9 17 1014.9 1014.7 0.0
22/10:00am 31.8 29.8 14.9 36 10.4 E 19 33 10 18 1015.2 1015.0 0.0
22/09:30am 30.8 28.0 14.4 36 10.0 ENE 22 35 12 19 1015.4 1015.2 0.0
22/09:00am 30.4 28.2 14.5 38 9.7 ENE 19 30 10 16 1015.4 1015.2 0.0
22/08:30am 29.6 27.0 15.0 41 8.9 NE 22 35 12 19 1015.2 1015.0 0.0
22/08:00am 29.0 25.6 14.8 42 8.6 ENE 26 43 14 23 1015.0 1014.8 0.0
22/07:30am 28.4 26.3 15.3 45 8.0 ENE 20 33 11 18 1014.5 1014.3 0.0
22/07:00am 26.2 26.3 15.6 52 6.4 NE 9 13 5 7 1014.4 1014.2 0.0
22/06:30am 24.5 25.2 16.0 59 5.2 NE 7 11 4 6 1013.9 1013.7 0.0
22/06:00am 24.3 24.7 16.3 61 4.9 NNE 9 13 5 7 1013.5 1013.3 0.0
22/05:30am 24.5 24.5 16.2 60 5.1 NNE 11 19 6 10 1013.3 1013.1 0.0
22/05:00am 25.3 24.9 16.2 57 5.6 NE 13 20 7 11 1012.8 1012.6 0.0
22/04:30am 25.4 24.9 16.8 59 5.3 NNE 15 24 8 13 1012.5 1012.3 0.0
22/04:00am 26.0 25.1 16.8 57 5.7 NE 17 32 9 17 1012.2 1012.0 0.0
22/03:30am 23.7 24.6 18.4 72 3.3 NE 11 17 6 9 1011.9 1011.7 0.0
22/03:00am 23.1 23.9 18.2 74 3.1 NE 11 15 6 8 1011.6 1011.4 0.0
22/02:30am 22.9 23.3 18.2 75 2.9 NNE 13 17 7 9 1011.3 1011.1 0.0
22/02:00am 22.2 22.3 15.5 66 4.0 ENE 9 11 5 6 1011.3 1011.1 0.0
22/01:30am 23.0 23.5 15.1 61 4.7 S 6 9 3 5 1011.3 1011.1 0.0
22/01:00am 23.0 23.4 14.8 60 4.9 SW 6 7 3 4 1011.3 1011.1 0.0
22/12:30am 23.9 24.3 15.4 59 5.1 WNW 7 11 4 6 1011.2 1011.0 0.0
22/12:00am 24.9 25.2 16.1 58 5.4 W 9 11 5 6 1011.5 1011.3 0.0
 
Date/Time
EST
Temp
°C
App
Temp
°C
Dew
Point
°C
Rel
Hum
%
Delta-T
°C
Wind Press
QNH
hPa
Press
MSL
hPa
Rain since
9am
mm
Dir  Spd
km/h
Gust
km/h
Spd
kts
Gust
kts
21/11:30pm 25.2 25.0 16.6 59 5.3 SW 13 17 7 9 1011.6 1011.4 0.0
21/11:00pm 25.1 25.5 18.1 65 4.4 WSW 13 19 7 10 1011.8 1011.6 0.0
21/10:30pm 25.4 26.3 19.3 69 3.9 W 13 17 7 9 1011.9 1011.7 0.0
21/10:00pm 25.7 26.5 19.1 67 4.2 W 13 17 7 9 1011.9 1011.7 0.0
21/09:30pm 26.3 27.3 19.4 66 4.5 WNW 13 15 7 8 1011.8 1011.6 0.0
21/09:00pm 27.0 27.8 19.1 62 5.1 WNW 13 15 7 8 1011.6 1011.4 0.0
21/08:30pm 27.7 28.2 18.4 57 5.9 WNW 13 17 7 9 1011.5 1011.3 0.0
21/08:00pm 28.5 28.6 17.4 51 7.0 NW 13 17 7 9 1011.2 1011.0 0.0
21/07:30pm 29.5 28.9 15.6 43 8.6 NNW 13 17 7 9 1011.0 1010.8 0.0
21/07:00pm 30.8 28.5 14.0 36 10.2 NW 19 22 10 12 1010.6 1010.4 0.0
21/06:30pm 32.4 29.6 13.1 31 11.6 NNW 20 24 11 13 1010.2 1010.0 0.0
21/06:00pm 33.8 30.7 12.2 27 12.9 NW 20 30 11 16 1009.9 1009.7 0.0
21/05:30pm 37.3 32.6 -8.6 5 20.1 ESE 9 17 5 9 1009.5 1009.3 0.0
21/05:00pm 38.0 32.2 -8.1 5 20.5 SSE 15 30 8 16 1009.3 1009.1 0.0
21/04:30pm 37.5 32.1 -8.5 5 20.2 S 13 20 7 11 1009.2 1009.0 0.0
21/04:00pm 38.0 33.8 -8.1 5 20.5 SSE 7 20 4 11 1009.2 1009.0 0.0
21/03:30pm 37.4 32.0 -8.5 5 20.1 E 13 24 7 13 1009.3 1009.1 0.0
21/03:00pm 38.0 32.2 -8.1 5 20.5 SSE 15 26 8 14 1009.5 1009.3 0.0
21/02:30pm 37.7 32.7 -8.3 5 20.3 SSE 11 22 6 12 1010.0 1009.8 0.0
21/02:00pm 37.6 31.4 -8.4 5 20.3 E 17 30 9 16 1010.5 1010.3 0.0
21/01:30pm 37.0 31.8 -6.5 6 19.6 SE 13 24 7 13 1011.1 1010.9 0.0
21/01:00pm 36.3 30.5 -5.0 7 19.0 ENE 17 28 9 15 1011.8 1011.6 0.0
21/12:30pm 36.4 30.8 -6.9 6 19.3 E 15 28 8 15 1012.4 1012.2 0.0
21/12:00pm 35.6 28.9 -7.5 6 18.9 SE 20 32 11 17 1012.8 1012.6 0.0
21/11:30am 34.9 27.6 -10.3 5 18.9 ESE 22 37 12 20 1013.4 1013.2 0.0
21/11:00am 34.4 28.3 -8.3 6 18.3 ESE 17 24 9 13 1013.7 1013.5 0.0
21/10:30am 33.7 27.0 -11.1 5 18.3 SE 19 28 10 15 1014.2 1014.0 0.0
21/10:00am 32.8 26.0 -11.7 5 17.8 SE 19 32 10 17 1014.6 1014.4 0.0
21/09:30am 31.5 24.7 -12.6 5 17.2 SE 19 30 10 16 1014.8 1014.6 0.0
21/09:00am 30.9 24.4 -13.1 5 16.9 SE 17 28 9 15 1014.7 1014.5 0.0
21/08:30am 28.1 21.2 -10.9 7 15.1 SSE 20 28 11 15 1014.6 1014.4 0.0
21/08:00am 26.3 18.6 -10.5 8 14.1 SSE 24 35 13 19 1014.6 1014.4 0.0
21/07:30am 24.8 17.6 -10.2 9 13.3 SSE 22 30 12 16 1014.4 1014.2 0.0
21/07:00am 23.2 16.3 -10.1 10 12.4 S 20 24 11 13 1014.4 1014.2 0.0
21/06:30am 21.8 15.8 -11.1 10 11.9 SSE 15 19 8 10 1014.0 1013.8 0.0
21/06:00am 21.6 15.6 -11.3 10 11.8 S 15 19 8 10 1013.5 1013.3 0.0
21/05:30am 21.5 15.6 -10.2 11 11.6 S 15 17 8 9 1013.3 1013.1 0.0
21/05:00am 22.0 16.0 -11.0 10 12.0 S 15 19 8 10 1013.1 1012.9 0.0
21/04:30am 22.4 16.8 -10.7 10 12.1 S 13 17 7 9 1012.7 1012.5 0.0
21/04:00am 22.5 16.8 -11.9 9 12.3 S 13 13 7 7 1012.3 1012.1 0.0
21/03:30am 23.9 18.3 -10.9 9 12.9 S 13 15 7 8 1012.1 1011.9 0.0
21/03:00am 24.5 18.9 -10.4 9 13.2 SSE 13 15 7 8 1012.1 1011.9 0.0
21/02:30am 24.7 19.2 -10.3 9 13.2 S 13 17 7 9 1012.4 1012.2 0.0
21/02:00am 25.1 19.5 -11.4 8 13.6 SSE 13 17 7 9 1012.4 1012.2 0.0
21/01:30am 25.6 20.0 -11.1 8 13.8 SSE 13 17 7 9 1012.7 1012.5 0.0
21/01:00am 26.6 20.2 -12.0 7 14.5 S 17 20 9 11 1012.7 1012.5 0.0
21/12:30am 26.9 20.6 -10.1 8 14.4 S 17 20 9 11 1012.9 1012.7 0.0
21/12:00am 27.3 21.4 -9.8 8 14.6 S 15 19 8 10 1013.3 1013.1 0.0
 
Date/Time
EST
Temp
°C
App
Temp
°C
Dew
Point
°C
Rel
Hum
%
Delta-T
°C
Wind Press
QNH
hPa
Press
MSL
hPa
Rain since
9am
mm
Dir  Spd
km/h
Gust
km/h
Spd
kts
Gust
kts
20/11:30pm 27.8 21.8 -11.1 7 15.0 SSE 15 19 8 10 1013.5 1013.3 0.0
20/11:00pm 28.0 22.1 -9.3 8 14.9 SSE 15 17 8 9 1013.6 1013.4 0.0
20/10:30pm 28.5 23.1 -8.9 8 15.1 SSE 13 15 7 8 1013.6 1013.4 0.0
20/10:00pm 29.4 24.0 -8.2 8 15.5 SSE 13 15 7 8 1013.6 1013.4 0.0
20/09:30pm 30.5 25.0 -9.1 7 16.2 SSE 13 17 7 9 1013.4 1013.2 0.0
20/09:00pm 31.0 25.6 -8.8 7 16.5 SSE 13 15 7 8 1013.3 1013.1 0.0
20/08:30pm 32.5 26.2 -9.7 6 17.4 SSE 17 20 9 11 1013.0 1012.8 0.0
20/08:00pm 33.5 26.6 -11.2 5 18.2 S 20 26 11 14 1012.6 1012.4 0.0
20/07:30pm 34.8 27.2 -10.3 5 18.8 S 24 35 13 19 1012.1 1011.9 0.0
20/07:00pm 35.6 27.2 -9.8 5 19.2 SSE 28 39 15 21 1011.5 1011.3 0.0
20/06:30pm 36.5 28.6 -9.2 5 19.7 SSE 26 39 14 21 1011.0 1010.8 0.0
20/06:00pm 37.5 29.0 -11.3 4 20.5 SSE 28 43 15 23 1010.5 1010.3 0.0
20/05:30pm 38.3 29.9 -10.7 4 20.9 SSE 28 44 15 24 1010.3 1010.1 0.0
20/05:00pm 38.9 29.7 -10.3 4 21.3 SSE 32 46 17 25 1010.2 1010.0 0.0
20/04:30pm 38.5 29.3 -10.6 4 21.0 SSE 32 44 17 24 1010.4 1010.2 0.0
20/04:00pm 39.0 29.7 -10.3 4 21.3 S 33 43 18 23 1010.5 1010.3 0.0
20/03:32pm 39.1 30.3 -10.2 4 21.4 S 30 48 16 26 1010.7 1010.5 0.0
20/03:30pm 38.7 29.5 -10.5 4 21.1 S 32 48 17 26 1010.8 1010.6 0.0
20/03:00pm 38.5 29.3 -10.6 4 21.1 S 32 54 17 29 1011.2 1011.0 0.0
20/02:49pm 39.4 31.0 -10.0 4 21.5 S 28 48 15 26 1011.2 1011.0 0.0
20/02:30pm 38.7 31.0 -10.5 4 21.1 SSE 24 35 13 19 1011.5 1011.3 0.0
20/02:19pm 38.3 29.1 -10.7 4 20.9 S 32 50 17 27 1011.7 1011.5 0.0
20/02:12pm 39.1 29.8 -10.2 4 21.4 S 33 50 18 27 1011.7 1011.5 0.0
20/02:00pm 38.6 31.3 -10.5 4 21.1 SE 22 32 12 17 1011.8 1011.6 0.0
20/01:30pm 38.6 30.4 -7.7 5 20.8 SE 28 41 15 22 1012.4 1012.2 0.0
20/01:00pm 37.9 30.8 -8.2 5 20.4 SSE 22 35 12 19 1012.9 1012.7 0.0
20/12:30pm 37.6 31.1 -8.4 5 20.2 SE 19 37 10 20 1013.6 1013.4 0.0
20/12:00pm 38.2 30.0 -8.0 5 20.6 SSE 28 44 15 24 1014.1 1013.9 0.0
20/11:30am 37.3 29.6 -11.4 4 20.4 ESE 24 39 13 21 1014.8 1014.6 0.0
20/11:00am 36.3 28.9 -12.1 4 19.9 SE 22 39 12 21 1015.3 1015.1 0.0
20/10:30am 35.4 28.6 -9.9 5 19.1 ESE 20 33 11 18 1016.0 1015.8 0.0
20/10:00am 34.1 27.9 -4.8 8 17.6 ESE 19 32 10 17 1016.5 1016.3 0.0
20/09:30am 32.8 28.3 -0.3 12 16.0 ESE 13 20 7 11 1016.7 1016.5 0.0
20/09:00am 31.5 28.7 5.1 19 13.9 ESE 9 19 5 10 1016.9 1016.7 0.0
20/08:30am 29.7 26.9 7.0 24 12.2 ENE 11 15 6 8 1016.8 1016.6 0.0

Other formats

Comma delimited format used in spreadsheet applications
http://www.bom.gov.au/fwo/IDQ60801/IDQ60801.94266.axf

JavaScript Object Notation format (JSON) in row-major order
http://www.bom.gov.au/fwo/IDQ60801/IDQ60801.94266.json

Data quality

Most of these data are generated automatically and are frequently updated. Quality checks on data are not normally performed. It is possible for incorrect values to appear. Refer to information at About Latest Weather Observations and please check the disclaimer before using these data.